createdAt,value
2023-04-27T00:02:22.282Z,82.36
2023-04-27T00:04:51.010Z,83.44
2023-04-27T00:07:18.965Z,84.15
2023-04-27T00:09:47.124Z,84.71
2023-04-27T00:12:14.714Z,85.36
2023-04-27T00:14:43.618Z,85.61
2023-04-27T00:17:11.297Z,85.86
2023-04-27T00:19:39.590Z,85.78
2023-04-27T00:22:07.481Z,85.34
2023-04-27T00:24:35.540Z,85.30
2023-04-27T00:27:03.672Z,85.07
2023-04-27T00:29:31.363Z,85.08
2023-04-27T00:32:02.061Z,84.98
2023-04-27T00:34:29.708Z,84.77
2023-04-27T00:36:58.444Z,84.93
2023-04-27T00:39:26.180Z,85.21
2023-04-27T00:41:54.968Z,85.23
2023-04-27T00:44:26.117Z,85.55
2023-04-27T00:46:54.265Z,85.90
2023-04-27T00:49:24.571Z,86.79
2023-04-27T00:51:52.519Z,87.06
2023-04-27T00:54:23.879Z,87.86
2023-04-27T00:56:52.857Z,88.25
2023-04-27T00:59:21.717Z,88.20
2023-04-27T01:01:50.917Z,88.59
2023-04-27T01:04:21.024Z,88.74
2023-04-27T01:06:50.208Z,89.42
2023-04-27T01:09:19.743Z,89.12
2023-04-27T01:11:50.703Z,89.72
2023-04-27T01:14:18.530Z,90.14
2023-04-27T01:16:47.476Z,90.54
2023-04-27T01:19:15.464Z,90.86
2023-04-27T01:21:44.119Z,90.84
2023-04-27T01:24:13.028Z,90.77
2023-04-27T01:26:40.795Z,90.80
2023-04-27T01:29:11.261Z,91.28
2023-04-27T01:31:39.889Z,91.55
2023-04-27T01:34:08.526Z,92.10
2023-04-27T01:36:37.006Z,92.35
2023-04-27T01:39:09.954Z,93.25
2023-04-27T01:41:39.792Z,93.41
2023-04-27T01:44:08.958Z,93.52
2023-04-27T01:46:38.108Z,93.28
2023-04-27T01:49:07.436Z,93.65
2023-04-27T01:51:35.961Z,93.93
2023-04-27T01:54:03.566Z,94.79
2023-04-27T01:56:31.244Z,95.09
2023-04-27T01:59:00.201Z,95.52
2023-04-27T02:01:28.976Z,95.17
2023-04-27T02:03:56.724Z,94.71
2023-04-27T02:06:28.657Z,93.63
2023-04-27T02:08:56.343Z,93.25
2023-04-27T02:11:23.887Z,93.11
2023-04-27T02:13:51.731Z,93.80
2023-04-27T02:16:21.673Z,94.53
2023-04-27T02:18:49.439Z,95.05
2023-04-27T02:21:17.394Z,95.86
2023-04-27T02:23:45.127Z,96.31
2023-04-27T02:26:17.732Z,96.77
2023-04-27T02:28:45.971Z,97.39
2023-04-27T02:31:13.889Z,97.30
2023-04-27T02:33:43.105Z,97.63
2023-04-27T02:36:11.525Z,97.00
2023-04-27T02:38:39.074Z,96.27
2023-04-27T02:41:07.128Z,94.99
2023-04-27T02:43:36.084Z,94.39
2023-04-27T02:46:07.684Z,94.46
2023-04-27T02:48:35.331Z,95.10
2023-04-27T02:51:07.928Z,96.10
2023-04-27T02:53:36.284Z,96.87
2023-04-27T02:56:04.076Z,97.37
2023-04-27T02:58:31.813Z,97.87
2023-04-27T03:00:59.530Z,97.72
2023-04-27T03:03:27.649Z,98.21
2023-04-27T03:05:56.038Z,97.85
2023-04-27T03:08:25.787Z,97.23
2023-04-27T03:10:56.046Z,96.99
2023-04-27T03:13:24.632Z,96.85
2023-04-27T03:15:52.172Z,97.07
2023-04-27T03:18:21.115Z,97.52
2023-04-27T03:20:50.052Z,97.41
2023-04-27T03:23:19.492Z,97.50
2023-04-27T03:25:49.163Z,96.86
2023-04-27T03:28:16.860Z,96.06
2023-04-27T03:30:44.602Z,95.30
2023-04-27T03:33:12.372Z,95.33
2023-04-27T03:35:41.952Z,95.60
2023-04-27T03:38:10.045Z,96.54
2023-04-27T03:40:38.963Z,97.23
2023-04-27T03:43:08.046Z,97.77
2023-04-27T03:45:36.031Z,97.87
2023-04-27T03:48:04.161Z,97.90
2023-04-27T03:50:33.000Z,98.17
2023-04-27T03:53:02.044Z,98.58
2023-04-27T03:55:32.940Z,98.57
2023-04-27T03:58:00.963Z,99.04
2023-04-27T04:00:30.074Z,99.43
2023-04-27T04:02:57.773Z,99.67
2023-04-27T04:05:30.474Z,99.48
2023-04-27T04:08:00.000Z,98.71
2023-04-27T04:10:28.831Z,98.21
2023-04-27T04:12:56.439Z,98.24
2023-04-27T04:15:24.100Z,98.68
2023-04-27T04:17:55.086Z,99.43
2023-04-27T04:20:22.944Z,99.72
2023-04-27T04:22:51.244Z,100.00
2023-04-27T04:25:20.671Z,100.00
2023-04-27T04:27:49.031Z,100.00
2023-04-27T04:30:17.978Z,100.00
2023-04-27T04:32:46.073Z,100.00
2023-04-27T04:35:17.701Z,100.00
2023-04-27T04:37:45.524Z,100.00
2023-04-27T04:40:14.155Z,100.00
2023-04-27T04:42:43.069Z,100.00
2023-04-27T04:45:12.071Z,100.00
2023-04-27T04:47:40.014Z,100.00
2023-04-27T04:50:09.285Z,100.00
2023-04-27T04:52:38.613Z,100.00
2023-04-27T04:55:07.431Z,100.00
2023-04-27T05:00:29.963Z,100.00
2023-04-27T05:02:58.802Z,100.00
2023-04-27T05:05:26.463Z,100.00
2023-04-27T05:07:55.979Z,100.00
2023-04-27T05:10:23.547Z,100.00
2023-04-27T05:12:51.148Z,100.00
2023-04-27T05:15:18.985Z,100.00
2023-04-27T05:17:46.745Z,100.00
2023-04-27T05:20:14.450Z,100.00
2023-04-27T05:22:42.019Z,100.00
2023-04-27T05:25:12.198Z,100.00
2023-04-27T05:27:41.006Z,100.00
2023-04-27T05:30:09.953Z,100.00
2023-04-27T05:32:37.807Z,100.00
2023-04-27T05:35:06.969Z,100.00
2023-04-27T05:38:04.718Z,100.00
2023-04-27T05:40:33.949Z,100.00
2023-04-27T05:43:05.246Z,100.00
2023-04-27T05:45:34.058Z,100.00
2023-04-27T05:48:03.390Z,100.00
2023-04-27T05:50:31.591Z,100.00
2023-04-27T05:52:59.448Z,100.00
2023-04-27T05:55:54.109Z,100.00
2023-04-27T05:58:25.617Z,100.00
2023-04-27T06:00:54.962Z,100.00
2023-04-27T06:03:23.652Z,100.00
2023-04-27T06:05:57.422Z,100.00
2023-04-27T06:08:27.071Z,100.00
2023-04-27T06:10:56.414Z,100.00
2023-04-27T06:13:26.402Z,100.00
2023-04-27T06:16:19.410Z,100.00
2023-04-27T06:18:47.846Z,100.00
2023-04-27T06:21:17.369Z,100.00
2023-04-27T06:23:46.120Z,100.00
2023-04-27T06:26:15.367Z,100.00
2023-04-27T06:28:42.939Z,100.00
2023-04-27T06:31:10.968Z,100.00
2023-04-27T06:33:39.084Z,100.00
2023-04-27T06:36:07.114Z,100.00
2023-04-27T06:38:36.943Z,100.00
2023-04-27T06:41:04.979Z,100.00
2023-04-27T06:43:34.108Z,99.59
2023-04-27T06:46:03.547Z,96.75
2023-04-27T06:48:32.073Z,93.13
2023-04-27T06:51:03.949Z,89.53
2023-04-27T06:53:32.368Z,89.78
2023-04-27T06:56:00.142Z,88.83
2023-04-27T06:58:28.162Z,86.18
2023-04-27T07:01:03.029Z,88.08
2023-04-27T07:03:32.386Z,82.94
2023-04-27T07:06:01.974Z,83.22
2023-04-27T07:08:29.726Z,81.89
2023-04-27T07:10:57.281Z,81.69
2023-04-27T07:13:25.460Z,79.45
2023-04-27T07:15:58.633Z,76.35
2023-04-27T07:18:28.052Z,76.20
2023-04-27T07:20:55.725Z,74.94
2023-04-27T07:23:23.683Z,74.38
2023-04-27T07:25:51.849Z,71.54
2023-04-27T07:28:19.483Z,73.68
2023-04-27T07:30:49.177Z,73.40
2023-04-27T07:33:19.078Z,71.95
2023-04-27T07:35:49.951Z,70.90
2023-04-27T07:38:18.387Z,66.04
2023-04-27T07:40:46.575Z,66.70
2023-04-27T07:43:15.544Z,66.57
2023-04-27T07:45:43.993Z,65.90
2023-04-27T07:48:12.747Z,64.82
2023-04-27T07:50:41.958Z,63.02
2023-04-27T07:53:11.253Z,63.14
2023-04-27T07:55:39.016Z,63.44
2023-04-27T07:58:08.982Z,60.18
2023-04-27T08:00:37.968Z,58.13
2023-04-27T08:03:10.151Z,58.74
2023-04-27T08:05:38.423Z,59.16
2023-04-27T08:08:08.179Z,59.29
2023-04-27T08:10:38.969Z,58.85
2023-04-27T08:13:09.757Z,57.37
2023-04-27T08:15:37.467Z,55.73
2023-04-27T08:18:06.044Z,55.64
2023-04-27T08:20:33.649Z,56.12
2023-04-27T08:23:01.958Z,56.21
2023-04-27T08:25:30.912Z,55.98
2023-04-27T08:28:01.131Z,55.28
2023-04-27T08:30:29.616Z,54.85
2023-04-27T08:32:57.509Z,53.91
2023-04-27T08:35:25.261Z,53.54
2023-04-27T08:37:54.148Z,53.07
2023-04-27T08:40:25.341Z,53.20
2023-04-27T08:42:59.348Z,53.15
2023-04-27T08:45:28.954Z,51.98
2023-04-27T08:47:56.983Z,51.06
2023-04-27T08:50:26.416Z,50.72
2023-04-27T08:52:53.999Z,51.66
2023-04-27T08:55:21.735Z,52.12
2023-04-27T08:58:01.342Z,52.68
2023-04-27T09:00:41.488Z,51.72
2023-04-27T09:03:12.092Z,52.34
2023-04-27T09:06:00.583Z,51.60
2023-04-27T09:08:44.068Z,50.82
2023-04-27T09:11:12.989Z,50.17
2023-04-27T09:13:45.925Z,50.28
2023-04-27T09:16:15.014Z,49.72
2023-04-27T09:18:44.977Z,49.53
2023-04-27T09:21:23.194Z,50.82
2023-04-27T09:23:52.083Z,49.74
2023-04-27T09:26:22.574Z,49.57
2023-04-27T09:28:53.509Z,50.08
2023-04-27T09:31:22.649Z,49.19
2023-04-27T09:33:56.506Z,48.86
2023-04-27T09:36:25.685Z,48.36
2023-04-27T09:38:54.320Z,48.44
2023-04-27T09:41:22.860Z,47.89
2023-04-27T09:43:57.800Z,46.31
2023-04-27T09:46:29.100Z,46.95
2023-04-27T09:48:58.083Z,46.84
2023-04-27T09:51:26.056Z,45.61
2023-04-27T09:53:58.147Z,45.65
2023-04-27T09:56:39.458Z,44.58
2023-04-27T09:59:25.244Z,44.59
2023-04-27T10:01:57.825Z,45.06
2023-04-27T10:04:47.140Z,43.68
2023-04-27T10:07:16.409Z,44.14
2023-04-27T10:09:46.273Z,44.96
2023-04-27T10:12:19.985Z,45.24
2023-04-27T10:14:54.060Z,44.97
2023-04-27T10:17:26.450Z,43.76
2023-04-27T10:19:57.826Z,43.34
2023-04-27T10:22:38.039Z,43.88
2023-04-27T10:25:17.451Z,44.54
2023-04-27T10:27:51.974Z,43.14
2023-04-27T10:30:22.778Z,44.18
2023-04-27T10:32:55.044Z,44.67
2023-04-27T10:35:24.088Z,44.26
2023-04-27T10:37:53.001Z,43.89
2023-04-27T10:40:21.495Z,43.22
2023-04-27T10:42:49.812Z,44.19
2023-04-27T10:45:31.918Z,44.37
2023-04-27T10:48:02.344Z,45.24
2023-04-27T10:50:31.908Z,45.07
2023-04-27T10:53:02.673Z,45.47
2023-04-27T10:55:32.020Z,45.66
2023-04-27T10:58:01.384Z,44.38
2023-04-27T11:00:34.985Z,44.05
2023-04-27T11:03:13.223Z,44.06
2023-04-27T11:05:42.735Z,44.02
2023-04-27T11:08:14.048Z,43.91
2023-04-27T11:10:47.237Z,43.59
2023-04-27T11:13:17.970Z,43.44
2023-04-27T11:15:48.730Z,43.28
2023-04-27T11:18:18.006Z,43.38
2023-04-27T11:20:47.857Z,43.49
2023-04-27T11:23:26.976Z,43.77
2023-04-27T11:25:55.018Z,43.79
2023-04-27T11:28:25.977Z,43.82
2023-04-27T11:30:59.066Z,43.92
2023-04-27T11:33:26.909Z,43.41
2023-04-27T11:35:55.104Z,43.44
2023-04-27T11:38:23.659Z,43.53
2023-04-27T11:41:01.228Z,43.73
2023-04-27T11:43:30.074Z,44.05
2023-04-27T11:46:03.375Z,44.05
2023-04-27T11:48:31.389Z,44.09
2023-04-27T11:51:01.455Z,44.19
2023-04-27T11:53:33.781Z,43.79
2023-04-27T11:56:05.032Z,43.70
2023-04-27T11:58:35.975Z,43.94
2023-04-27T12:01:05.344Z,42.71
2023-04-27T12:03:35.597Z,43.28
2023-04-27T12:06:21.298Z,43.11
2023-04-27T12:08:51.493Z,42.58
2023-04-27T12:11:19.198Z,42.84
2023-04-27T12:13:48.177Z,42.90
2023-04-27T12:16:17.192Z,42.66
2023-04-27T12:18:44.934Z,42.80
2023-04-27T12:21:13.156Z,43.18
2023-04-27T12:23:40.888Z,43.14
2023-04-27T12:26:08.509Z,42.13
2023-04-27T12:28:37.985Z,42.33
2023-04-27T12:31:08.150Z,42.31
2023-04-27T12:33:37.861Z,42.33
2023-04-27T12:36:05.757Z,42.66
2023-04-27T12:38:33.599Z,42.57
2023-04-27T12:41:03.201Z,41.63
2023-04-27T12:43:31.056Z,41.49
2023-04-27T12:45:59.221Z,42.12
2023-04-27T12:48:27.168Z,42.79
2023-04-27T12:50:56.129Z,42.31
2023-04-27T12:53:23.994Z,42.05
2023-04-27T12:55:53.412Z,42.16
2023-04-27T12:58:21.915Z,42.59
2023-04-27T13:00:49.482Z,42.99
2023-04-27T13:03:17.341Z,43.28
2023-04-27T13:05:45.603Z,42.71
2023-04-27T13:08:14.829Z,42.57
2023-04-27T13:10:42.654Z,42.30
2023-04-27T13:13:10.296Z,42.66
2023-04-27T13:15:38.590Z,43.77
2023-04-27T13:18:10.276Z,43.13
2023-04-27T13:20:38.377Z,42.42
2023-04-27T13:23:06.623Z,42.68
2023-04-27T13:25:35.931Z,41.49
2023-04-27T13:28:04.058Z,41.94
2023-04-27T13:30:36.029Z,42.07
2023-04-27T13:33:18.515Z,41.14
2023-04-27T13:35:51.497Z,41.31
2023-04-27T13:38:19.068Z,40.94
2023-04-27T13:40:49.759Z,41.52
2023-04-27T13:43:17.408Z,41.25
2023-04-27T13:45:45.296Z,41.65
2023-04-27T13:48:13.709Z,40.83
2023-04-27T13:50:41.570Z,40.19
2023-04-27T13:53:09.389Z,40.93
2023-04-27T13:55:37.295Z,41.38
2023-04-27T13:58:06.264Z,42.06
2023-04-27T14:00:34.636Z,40.84
2023-04-27T14:03:04.354Z,40.84
2023-04-27T14:05:33.053Z,41.38
2023-04-27T14:08:01.632Z,42.23
2023-04-27T14:10:29.483Z,41.67
2023-04-27T14:12:58.271Z,41.87
2023-04-27T14:15:28.066Z,42.39
2023-04-27T14:17:56.109Z,42.34
2023-04-27T14:20:24.536Z,41.95
2023-04-27T14:22:56.664Z,41.33
2023-04-27T14:25:27.149Z,41.01
2023-04-27T14:27:54.787Z,40.24
2023-04-27T14:30:22.802Z,39.20
2023-04-27T14:32:51.809Z,40.03
2023-04-27T14:35:20.974Z,39.94
2023-04-27T14:37:48.713Z,39.46
2023-04-27T14:40:16.417Z,39.70
2023-04-27T14:42:44.329Z,40.33
2023-04-27T14:45:12.587Z,40.32
2023-04-27T14:47:41.049Z,38.76
2023-04-27T14:50:11.509Z,40.73
2023-04-27T14:52:39.425Z,41.42
2023-04-27T14:55:09.009Z,39.66
2023-04-27T14:57:37.582Z,39.46
2023-04-27T15:00:10.040Z,39.67
2023-04-27T15:02:39.524Z,39.11
2023-04-27T15:05:07.953Z,39.66
2023-04-27T15:07:37.077Z,39.36
2023-04-27T15:10:05.097Z,39.29
2023-04-27T15:12:32.831Z,39.66
2023-04-27T15:15:00.677Z,39.92
2023-04-27T15:17:29.500Z,40.21
2023-04-27T15:19:58.983Z,40.43
2023-04-27T15:22:27.698Z,39.73
2023-04-27T15:24:57.091Z,40.03
2023-04-27T15:27:26.254Z,40.65
2023-04-27T15:29:55.219Z,40.32
2023-04-27T15:32:23.227Z,40.18
2023-04-27T15:34:51.752Z,40.39
2023-04-27T15:37:19.799Z,40.61
2023-04-27T15:39:48.020Z,40.36
2023-04-27T15:42:17.923Z,40.21
2023-04-27T15:44:46.420Z,39.92
2023-04-27T15:47:15.256Z,39.80
2023-04-27T15:49:54.041Z,40.37
2023-04-27T15:52:25.590Z,40.00
2023-04-27T15:54:54.164Z,40.39
2023-04-27T15:57:24.119Z,41.57
2023-04-27T15:59:51.682Z,41.99
2023-04-27T16:02:20.105Z,41.13
2023-04-27T16:04:49.113Z,40.92
2023-04-27T16:07:16.899Z,40.82
2023-04-27T16:09:44.477Z,41.29
2023-04-27T16:12:13.096Z,41.68
2023-04-27T16:14:42.973Z,41.02
2023-04-27T16:17:11.559Z,40.13
2023-04-27T16:19:39.148Z,39.70
2023-04-27T16:22:08.443Z,39.89
2023-04-27T16:24:38.034Z,40.42
2023-04-27T16:27:07.051Z,40.56
2023-04-27T16:29:35.180Z,40.96
2023-04-27T16:32:04.408Z,41.57
2023-04-27T16:34:32.374Z,41.25
2023-04-27T16:37:00.019Z,41.65
2023-04-27T16:39:29.101Z,41.71
2023-04-27T16:41:56.687Z,40.62
2023-04-27T16:44:24.344Z,40.16
2023-04-27T16:46:52.569Z,40.65
2023-04-27T16:49:21.606Z,41.52
2023-04-27T16:51:49.205Z,41.91
2023-04-27T16:54:16.890Z,42.14
2023-04-27T16:56:45.689Z,42.54
2023-04-27T16:59:15.244Z,42.35
2023-04-27T17:01:43.313Z,42.36
2023-04-27T17:04:12.006Z,42.59
2023-04-27T17:06:41.988Z,43.03
2023-04-27T17:09:10.769Z,43.12
2023-04-27T17:11:38.373Z,42.88
2023-04-27T17:14:05.920Z,42.99
2023-04-27T17:16:33.548Z,42.99
2023-04-27T17:19:01.426Z,43.13
2023-04-27T17:21:29.038Z,43.48
2023-04-27T17:23:57.933Z,43.45
2023-04-27T17:26:25.975Z,43.68
2023-04-27T17:28:59.680Z,43.49
2023-04-27T17:31:27.364Z,43.48
2023-04-27T17:33:55.012Z,43.82
2023-04-27T17:36:22.612Z,43.90
2023-04-27T17:38:50.292Z,43.90
2023-04-27T17:41:19.253Z,44.02
2023-04-27T17:43:47.667Z,44.19
2023-04-27T17:46:16.052Z,44.11
2023-04-27T17:48:44.214Z,44.75
2023-04-27T17:51:13.448Z,45.28
2023-04-27T17:53:41.091Z,45.49
2023-04-27T17:56:09.028Z,45.76
2023-04-27T17:58:38.590Z,45.99
2023-04-27T18:01:08.949Z,46.49
2023-04-27T18:03:37.292Z,46.19
2023-04-27T18:06:05.011Z,46.48
2023-04-27T18:08:32.753Z,46.39
2023-04-27T18:11:00.426Z,46.92
2023-04-27T18:13:28.540Z,47.16
2023-04-27T18:15:58.493Z,47.44
2023-04-27T18:18:26.805Z,47.43
2023-04-27T18:20:54.553Z,47.59
2023-04-27T18:23:23.904Z,47.83
2023-04-27T18:25:51.491Z,48.22
2023-04-27T18:28:19.244Z,48.62
2023-04-27T18:30:46.862Z,48.85
2023-04-27T18:33:17.690Z,48.61
2023-04-27T18:35:46.038Z,48.66
2023-04-27T18:38:14.121Z,48.91
2023-04-27T18:40:42.026Z,48.93
2023-04-27T18:43:11.194Z,48.92
2023-04-27T18:45:39.030Z,49.44
2023-04-27T18:48:06.775Z,49.02
2023-04-27T18:50:36.025Z,49.08
2023-04-27T18:53:05.281Z,49.35
2023-04-27T18:55:32.860Z,49.04
2023-04-27T18:58:00.826Z,49.48
2023-04-27T19:00:30.683Z,49.58
2023-04-27T19:02:58.533Z,49.94
2023-04-27T19:05:27.158Z,50.25
2023-04-27T19:07:56.178Z,50.11
2023-04-27T19:10:24.597Z,50.17
2023-04-27T19:12:52.940Z,50.27
2023-04-27T19:15:21.260Z,50.34
2023-04-27T19:17:52.770Z,50.51
2023-04-27T19:20:29.822Z,50.46
2023-04-27T19:22:58.731Z,50.61
2023-04-27T19:25:26.671Z,51.08
2023-04-27T19:27:54.579Z,50.84
2023-04-27T19:30:24.109Z,51.01
2023-04-27T19:32:52.104Z,50.85
2023-04-27T19:35:20.346Z,50.76
2023-04-27T19:37:48.117Z,51.08
2023-04-27T19:40:17.989Z,50.88
2023-04-27T19:42:46.115Z,51.17
2023-04-27T19:45:13.938Z,51.12
2023-04-27T19:47:41.951Z,51.21
2023-04-27T19:50:11.013Z,51.37
2023-04-27T19:52:40.642Z,51.15
2023-04-27T19:55:09.031Z,51.20
2023-04-27T19:57:38.010Z,51.26
2023-04-27T20:00:10.019Z,51.17
2023-04-27T20:02:41.960Z,51.39
2023-04-27T20:05:10.502Z,51.17
2023-04-27T20:07:38.517Z,51.60
2023-04-27T20:10:07.457Z,51.24
2023-04-27T20:15:09.257Z,51.28
2023-04-27T20:17:37.622Z,51.31
2023-04-27T20:20:09.969Z,51.56
2023-04-27T20:22:37.793Z,51.49
2023-04-27T20:25:07.714Z,51.42
2023-04-27T20:27:36.045Z,51.26
2023-04-27T20:30:04.608Z,51.34
2023-04-27T20:32:33.580Z,51.60
2023-04-27T20:35:02.450Z,51.56
2023-04-27T20:37:32.077Z,51.05
2023-04-27T20:40:00.796Z,51.22
2023-04-27T20:42:29.468Z,51.72
2023-04-27T20:44:57.529Z,51.48
2023-04-27T20:47:27.038Z,51.65
2023-04-27T20:49:56.794Z,52.12
2023-04-27T20:52:24.408Z,52.14
2023-04-27T20:54:52.003Z,52.13
2023-04-27T20:57:19.548Z,52.45
2023-04-27T20:59:48.528Z,52.22
2023-04-27T21:02:17.573Z,52.27
2023-04-27T21:04:45.800Z,52.28
2023-04-27T21:07:14.758Z,52.24
2023-04-27T21:09:42.433Z,52.39
2023-04-27T21:12:10.146Z,52.44
2023-04-27T21:14:37.834Z,52.79
2023-04-27T21:17:05.740Z,52.88
2023-04-27T21:19:34.464Z,52.93
2023-04-27T21:22:02.268Z,52.88
2023-04-27T21:24:31.236Z,53.39
2023-04-27T21:26:58.883Z,53.37
2023-04-27T21:29:27.762Z,53.46
2023-04-27T21:31:56.054Z,53.49
2023-04-27T21:34:23.668Z,53.48
2023-04-27T21:36:51.242Z,53.39
2023-04-27T21:39:18.943Z,53.53
2023-04-27T21:41:52.266Z,53.86
2023-04-27T21:44:19.928Z,53.67
2023-04-27T21:46:50.070Z,53.89
2023-04-27T21:49:17.986Z,53.96
2023-04-27T21:51:45.761Z,53.82
2023-04-27T21:54:13.997Z,53.70
2023-04-27T21:56:42.542Z,53.99
2023-04-27T21:59:11.492Z,54.21
2023-04-27T22:01:39.167Z,54.06
2023-04-27T22:04:24.425Z,53.98
2023-04-27T22:07:01.425Z,54.11
2023-04-27T22:09:29.159Z,54.12
2023-04-27T22:11:57.630Z,54.24
2023-04-27T22:14:26.551Z,54.25
2023-04-27T22:16:54.121Z,54.56
2023-04-27T22:19:21.924Z,54.35
2023-04-27T22:21:49.410Z,54.37
2023-04-27T22:24:17.338Z,54.62
2023-04-27T22:26:45.099Z,54.74
2023-04-27T22:29:12.962Z,54.70
2023-04-27T22:31:42.424Z,54.54
2023-04-27T22:34:11.037Z,54.74
2023-04-27T22:36:38.905Z,54.82
2023-04-27T22:39:07.085Z,55.15
2023-04-27T22:41:35.025Z,54.73
2023-04-27T22:44:02.600Z,54.82
2023-04-27T22:46:30.445Z,54.96
2023-04-27T22:49:01.331Z,55.35
2023-04-27T22:51:28.897Z,55.54
2023-04-27T22:53:56.457Z,55.61
2023-04-27T22:56:24.024Z,55.63
2023-04-27T22:58:51.989Z,55.61
2023-04-27T23:01:19.649Z,55.45
2023-04-27T23:03:47.476Z,55.36
2023-04-27T23:06:17.778Z,55.51
2023-04-27T23:08:46.918Z,55.55
2023-04-27T23:11:15.365Z,55.89
2023-04-27T23:13:44.669Z,55.87
2023-04-27T23:16:16.088Z,56.22
2023-04-27T23:18:43.747Z,55.75
2023-04-27T23:21:11.719Z,56.02
2023-04-27T23:23:40.797Z,56.08
2023-04-27T23:26:14.080Z,56.43
2023-04-27T23:28:42.326Z,56.40
2023-04-27T23:31:10.687Z,56.08
2023-04-27T23:33:39.386Z,56.24
2023-04-27T23:36:08.336Z,56.40
2023-04-27T23:38:36.108Z,56.82
2023-04-27T23:41:05.610Z,56.48
2023-04-27T23:43:34.778Z,56.87
2023-04-27T23:46:03.070Z,56.83
2023-04-27T23:48:30.700Z,56.54
2023-04-27T23:51:01.920Z,56.70
2023-04-27T23:53:29.991Z,56.55
2023-04-27T23:55:58.537Z,56.52
2023-04-27T23:58:29.247Z,56.47
